Terminal Aerodrome Forecast
Issued by NWS

Home | Current Version | Previous Version | Graphics & Text | Print | Product List | Glossary On
Versions: 1 2 3 4 5 6 7 8 9 10 11 12 13 14
000
FTUS43 KGRB 210520
TAFMTW
TAF
KMTW 210520Z 2106/2206 20018G28KT P6SM SCT200 WS013/25050KT
     FM210800 23014G24KT P6SM SCT200 WS013/27040KT
     FM211300 26018G28KT P6SM SCT035
     FM211600 30018G28KT P6SM BKN050
     FM212300 31012G21KT P6SM SCT040
     FM220200 31011KT P6SM SCT035=

USA.gov is the U.S. government's official web portal to all federal, state and local government web resources and services.